Time;durP1;ratioP1;P1;durP2;ratioP2;P2;SDS_P1;SDS_P2;PMS_P1;PMS_P2;Temp;Humidity;BMP_temperature;BMP_pressure;BME280_temperature;BME280_humidity;BME280_pressure;Samples;Min_cycle;Max_cycle;Signal;HPM_P1;HPM_P2
2023/03/06 00:00:42;;;;;;;;;;;7.80;79.20;;;6.58;63.39;99783.63;5047227;28;19944;-85
2023/03/06 00:03:09;;;;;;;;;;;7.70;79.40;;;6.59;63.22;99787.94;5047308;28;19935;-85
2023/03/06 00:05:36;;;;;;;;;;;7.70;79.20;;;6.58;63.49;99787.09;5048878;28;19929;-85
2023/03/06 00:08:03;;;;;;;;;;;7.80;79.40;;;6.60;63.57;99777.13;5060820;28;20288;-85
2023/03/06 00:10:32;;;;;;;;;;;7.70;79.50;;;6.55;63.63;99782.22;5048673;28;19940;-85
2023/03/06 00:13:01;;;;;;;;;;;7.70;79.60;;;6.37;64.25;99779.31;5049422;28;19929;-85
2023/03/06 00:15:28;;;;;;;;;;;7.60;79.60;;;6.42;63.84;99774.25;5049606;28;19933;-85
2023/03/06 00:17:56;;;;;;;;;;;7.60;79.70;;;6.41;63.91;99772.63;5048009;28;19932;-84
2023/03/06 00:20:24;;;;;;;;;;;7.60;79.80;;;6.36;64.26;99775.03;5048655;28;19929;-85
2023/03/06 00:22:50;;;;;;;;;;;7.60;79.80;;;6.39;63.92;99766.69;5048238;28;19925;-85
2023/03/06 00:25:19;;;;;;;;;;;7.60;79.80;;;6.43;64.04;99765.25;5047255;28;19933;-85
2023/03/06 00:27:47;;;;;;;;;;;7.60;79.80;;;6.43;64.05;99759.97;5046806;28;19947;-85
2023/03/06 00:30:16;;;;;;;;;;;7.60;79.80;;;6.41;64.08;99762.00;5062262;28;19932;-85
2023/03/06 00:32:43;;;;;;;;;;;7.60;79.90;;;6.40;64.16;99755.91;5049431;28;20769;-85
2023/03/06 00:35:10;;;;;;;;;;;7.60;80.00;;;6.44;64.05;99751.00;5049010;28;19974;-85
2023/03/06 00:37:37;;;;;;;;;;;7.60;79.90;;;6.42;64.07;99747.75;5048961;28;20032;-85
2023/03/06 00:40:05;;;;;;;;;;;7.60;80.00;;;6.42;63.99;99753.84;5046253;28;19928;-85
2023/03/06 00:42:32;;;;;;;;;;;7.60;80.00;;;6.37;63.84;99744.91;5048574;28;19929;-85
2023/03/06 00:45:00;;;;;;;;;;;7.60;79.90;;;6.38;64.02;99741.22;5048094;28;20305;-85
2023/03/06 00:47:27;;;;;;;;;;;7.50;79.80;;;6.38;63.79;99739.38;5046964;28;20443;-85
2023/03/06 00:49:54;;;;;;;;;;;7.50;79.90;;;6.41;64.04;99738.19;5047156;28;20468;-85
2023/03/06 00:52:21;;;;;;;;;;;7.50;79.80;;;6.42;63.77;99731.84;5048508;28;19932;-85
2023/03/06 00:54:48;;;;;;;;;;;7.50;79.90;;;6.42;63.67;99731.84;5047869;28;19940;-85
2023/03/06 00:57:15;;;;;;;;;;;7.50;79.90;;;6.39;63.75;99732.25;5046996;28;19935;-85
2023/03/06 00:59:42;;;;;;;;;;;7.50;80.10;;;6.26;64.03;99725.13;5046571;28;20543;-85
2023/03/06 01:02:10;;;;;;;;;;;7.40;80.00;;;6.22;64.35;99725.72;5049331;28;20308;-84
2023/03/06 01:04:37;;;;;;;;;;;7.40;80.20;;;6.27;63.99;99725.94;5046975;28;19933;-85
2023/03/06 01:07:04;;;;;;;;;;;7.40;80.00;;;6.27;64.58;99726.75;5047443;28;19935;-85
2023/03/06 01:09:31;;;;;;;;;;;7.40;80.30;;;6.36;64.24;99717.59;5043892;28;20338;-85
2023/03/06 01:11:58;;;;;;;;;;;7.50;80.20;;;6.48;64.06;99720.44;5048437;28;19932;-85
2023/03/06 01:14:25;;;;;;;;;;;7.60;80.00;;;6.55;63.79;99710.69;5046505;28;20389;-85
2023/03/06 01:16:53;;;;;;;;;;;7.70;79.80;;;6.50;63.21;99707.84;5043241;28;19936;-85
2023/03/06 01:19:22;;;;;;;;;;;7.70;79.30;;;6.54;63.12;99709.06;5045952;28;19929;-85
2023/03/06 01:21:49;;;;;;;;;;;7.70;79.40;;;6.65;62.99;99711.09;5048964;28;19936;-85
2023/03/06 01:24:15;;;;;;;;;;;7.80;78.90;;;6.64;62.73;99711.31;5047321;28;19935;-85
2023/03/06 01:26:42;;;;;;;;;;;7.80;79.00;;;6.68;62.62;99699.25;5046199;28;19970;-85
2023/03/06 01:29:09;;;;;;;;;;;7.80;78.70;;;6.70;62.82;99703.34;5048602;28;19929;-85
2023/03/06 01:31:37;;;;;;;;;;;7.90;78.80;;;6.78;62.50;99696.19;5047186;28;19924;-85
2023/03/06 01:34:04;;;;;;;;;;;7.90;78.80;;;6.68;62.92;99696.59;5048898;28;19929;-84
2023/03/06 01:36:32;;;;;;;;;;;7.90;78.80;;;6.59;62.90;99697.84;5046007;28;19939;-85
2023/03/06 01:38:59;;;;;;;;;;;7.80;79.00;;;6.64;62.99;99698.88;5047003;28;20294;-85
2023/03/06 01:41:26;;;;;;;;;;;7.80;78.80;;;6.66;62.81;99686.22;5048980;28;20461;-85
2023/03/06 01:43:53;;;;;;;;;;;7.80;78.80;;;6.61;62.50;99690.50;5048720;28;19936;-84
2023/03/06 01:46:28;;;;;;;;;;;7.80;78.80;;;6.59;62.98;99684.63;5049861;28;19925;-85
2023/03/06 01:48:58;;;;;;;;;;;7.80;79.00;;;6.58;62.97;99681.13;5050735;28;19929;-85
2023/03/06 01:51:29;;;;;;;;;;;7.70;79.00;;;6.62;62.82;99685.00;5049272;28;20281;-85
2023/03/06 01:54:00;;;;;;;;;;;7.70;79.00;;;6.52;62.63;99684.59;5050207;28;19929;-85
2023/03/06 01:56:28;;;;;;;;;;;7.70;79.00;;;6.47;63.19;99671.16;5047271;28;19937;-85
2023/03/06 01:58:56;;;;;;;;;;;7.60;79.00;;;6.45;63.18;99668.72;5050108;28;19935;-85
2023/03/06 02:01:23;;;;;;;;;;;7.60;79.00;;;6.48;63.18;99666.66;5050710;28;19936;-84
2023/03/06 02:03:52;;;;;;;;;;;7.60;78.90;;;6.48;62.78;99667.47;5067049;28;19925;-84
2023/03/06 02:06:20;;;;;;;;;;;7.60;78.80;;;6.50;62.70;99665.44;5051633;28;19940;-85
2023/03/06 02:08:48;;;;;;;;;;;7.60;78.80;;;6.47;62.88;99662.41;5067421;28;19951;-84
2023/03/06 02:11:19;;;;;;;;;;;7.60;78.90;;;6.46;62.78;99664.22;5051706;28;20647;-85
2023/03/06 02:13:49;;;;;;;;;;;7.60;79.00;;;6.47;62.63;99657.91;5052278;28;19951;-85
2023/03/06 02:16:21;;;;;;;;;;;7.60;79.00;;;6.48;62.78;99651.59;5047259;28;19925;-84
2023/03/06 02:18:48;;;;;;;;;;;7.60;78.90;;;6.49;62.73;99653.25;5051196;28;20011;-84
2023/03/06 02:21:19;;;;;;;;;;;7.60;79.00;;;6.51;62.80;99653.84;5049172;28;19967;-84
2023/03/06 02:23:54;;;;;;;;;;;7.60;79.00;;;6.49;62.84;99650.59;5049934;28;19931;-85
2023/03/06 02:26:24;;;;;;;;;;;7.60;79.00;;;6.44;62.99;99645.91;5049167;28;20019;-85
2023/03/06 02:28:51;;;;;;;;;;;7.60;79.20;;;6.41;63.50;99643.66;5048261;28;19928;-85
2023/03/06 02:31:23;;;;;;;;;;;7.50;79.50;;;6.41;63.61;99651.59;5049531;28;19925;-85
2023/03/06 02:34:02;;;;;;;;;;;7.70;79.80;;;6.36;63.68;99643.44;5044889;28;20357;-84
2023/03/06 02:36:29;;;;;;;;;;;7.50;79.80;;;6.37;63.73;99638.97;5047221;28;19932;-84
2023/03/06 02:38:57;;;;;;;;;;;7.50;79.70;;;6.38;63.32;99632.66;5048528;28;19924;-83
2023/03/06 02:41:25;;;;;;;;;;;7.50;79.70;;;6.38;63.32;99635.28;5084236;22;19951;-80
2023/03/06 02:43:53;;;;;;;;;;;7.50;79.70;;;6.39;63.24;99631.63;5053299;28;20027;-80
2023/03/06 02:46:20;;;;;;;;;;;7.50;79.60;;;6.37;63.46;99623.88;5052482;28;19967;-80
2023/03/06 02:48:47;;;;;;;;;;;7.50;79.80;;;6.33;63.59;99627.16;5058654;28;19924;-80
2023/03/06 02:51:14;;;;;;;;;;;7.50;79.80;;;6.34;63.85;99631.41;5057232;28;19928;-80
2023/03/06 02:53:41;;;;;;;;;;;7.50;79.80;;;6.34;63.91;99629.56;5073220;28;19928;-80
2023/03/06 02:56:08;;;;;;;;;;;7.50;80.00;;;6.36;63.71;99629.41;5057990;28;20061;-80
2023/03/06 02:58:37;;;;;;;;;;;7.50;79.80;;;6.32;63.49;99620.22;5060438;28;20400;-80
2023/03/06 03:01:04;;;;;;;;;;;7.50;79.80;;;6.29;63.89;99610.84;5055608;28;19982;-80
2023/03/06 03:03:31;;;;;;;;;;;7.50;80.00;;;6.27;63.93;99612.91;5052694;28;19929;-80
2023/03/06 03:05:59;;;;;;;;;;;7.40;79.90;;;6.32;63.89;99613.09;5052252;28;19936;-80
2023/03/06 03:08:29;;;;;;;;;;;7.50;80.20;;;6.36;63.91;99614.31;5060135;28;19936;-80
2023/03/06 03:11:00;;;;;;;;;;;7.50;80.00;;;6.38;63.93;99614.09;5061186;28;20393;-80
2023/03/06 03:13:32;;;;;;;;;;;7.50;80.00;;;6.36;63.41;99605.56;5066911;28;19939;-80
2023/03/06 03:16:04;;;;;;;;;;;7.40;79.80;;;6.36;63.62;99605.56;5051994;28;20289;-80
2023/03/06 03:18:31;;;;;;;;;;;7.40;79.80;;;6.36;63.71;99611.66;5070650;28;19943;-80
2023/03/06 03:20:58;;;;;;;;;;;7.40;79.90;;;6.31;63.76;99608.81;5060336;28;19924;-80
2023/03/06 03:23:26;;;;;;;;;;;7.50;80.00;;;6.31;63.53;99603.53;5056034;28;19928;-80
2023/03/06 03:26:05;;;;;;;;;;;7.40;79.80;;;6.32;63.59;99597.22;5051990;28;19928;-80
2023/03/06 03:28:32;;;;;;;;;;;7.40;79.80;;;6.30;63.54;99598.44;5070182;28;19932;-79
2023/03/06 03:31:03;;;;;;;;;;;7.40;79.80;;;6.32;63.51;99596.41;5059827;28;19972;-79
2023/03/06 03:33:31;;;;;;;;;;;7.40;79.80;;;6.28;63.71;99589.88;5052726;28;20339;-79
2023/03/06 03:35:58;;;;;;;;;;;7.40;79.60;;;6.22;63.42;99590.69;5051657;28;19932;-80
2023/03/06 03:38:26;;;;;;;;;;;7.40;79.80;;;6.23;63.65;99592.31;5051883;28;19940;-80
2023/03/06 03:40:54;;;;;;;;;;;7.30;79.80;;;6.21;63.66;99591.72;5075080;28;19966;-79
2023/03/06 03:43:21;;;;;;;;;;;7.30;79.80;;;6.25;63.28;99588.47;5065309;28;19928;-80
2023/03/06 03:45:48;;;;;;;;;;;7.30;79.70;;;6.25;63.38;99587.66;5056254;28;20372;-80
2023/03/06 03:48:17;;;;;;;;;;;7.30;79.60;;;6.29;63.00;99587.00;5053718;28;19929;-80
2023/03/06 03:50:44;;;;;;;;;;;7.40;79.40;;;6.27;62.97;99585.59;5065532;28;19928;-80
2023/03/06 03:53:11;;;;;;;;;;;7.30;79.10;;;6.24;62.08;99594.75;5056675;28;19932;-80
2023/03/06 03:55:38;;;;;;;;;;;7.30;78.60;;;6.11;62.62;99595.59;5062931;28;19924;-80
2023/03/06 03:58:05;;;;;;;;;;;7.30;79.00;;;6.11;62.60;99581.53;5056315;28;19959;-79
2023/03/06 04:00:33;;;;;;;;;;;7.20;78.80;;;6.11;62.63;99585.00;5046983;28;20027;-79
2023/03/06 04:03:10;;;;;;;;;;;7.20;78.90;;;6.16;62.16;99590.50;5051199;28;19935;-80
2023/03/06 04:05:42;;;;;;;;;;;7.20;78.70;;;6.11;62.23;99590.31;5071143;28;20031;-79
2023/03/06 04:08:12;;;;;;;;;;;7.20;78.80;;;6.06;62.67;99586.63;5059331;28;20034;-79
2023/03/06 04:10:42;;;;;;;;;;;7.20;78.70;;;6.10;61.98;99588.69;5051050;28;19928;-80
2023/03/06 04:13:11;;;;;;;;;;;7.20;78.40;;;6.08;62.28;99581.94;5059597;28;19998;-80
2023/03/06 04:15:42;;;;;;;;;;;7.40;78.60;;;6.14;62.31;99579.28;5052286;28;19928;-80
2023/03/06 04:18:10;;;;;;;;;;;7.30;78.50;;;6.17;62.21;99578.06;5048250;28;20389;-80
2023/03/06 04:20:38;;;;;;;;;;;7.30;78.20;;;6.14;61.74;99575.81;5050314;28;19936;-79
2023/03/06 04:23:06;;;;;;;;;;;7.40;78.00;;;5.92;62.11;99567.28;5059859;28;19964;-80
2023/03/06 04:25:34;;;;;;;;;;;7.20;78.00;;;5.97;62.38;99570.13;5073645;28;19924;-80
2023/03/06 04:28:03;;;;;;;;;;;7.20;78.30;;;6.07;62.40;99570.53;5051437;28;19935;-80
2023/03/06 04:30:31;;;;;;;;;;;7.20;78.20;;;6.08;62.16;99555.47;5048598;28;20031;-79
2023/03/06 04:32:58;;;;;;;;;;;7.20;78.20;;;6.08;61.90;99561.56;5059052;28;19959;-80
2023/03/06 04:35:26;;;;;;;;;;;7.30;78.20;;;6.01;62.00;99544.91;5070498;28;19937;-80
2023/03/06 04:37:59;;;;;;;;;;;7.20;78.20;;;6.00;62.29;99555.66;5047428;28;19931;-80
2023/03/06 04:40:32;;;;;;;;;;;7.20;78.20;;;6.00;62.37;99548.53;5049923;28;20388;-80
2023/03/06 04:43:00;;;;;;;;;;;7.20;78.20;;;5.95;62.58;99548.34;5077457;28;19931;-80
2023/03/06 04:45:28;;;;;;;;;;;7.10;78.50;;;6.00;62.54;99545.91;5077233;28;19929;-80
2023/03/06 04:47:55;;;;;;;;;;;7.20;78.50;;;6.06;62.44;99541.66;5068051;28;19982;-80
2023/03/06 04:50:24;;;;;;;;;;;7.20;78.40;;;6.09;62.14;99536.72;5069216;28;19936;-80
2023/03/06 04:52:51;;;;;;;;;;;7.20;78.20;;;6.07;62.27;99527.38;5077069;28;19940;-81
2023/03/06 04:55:19;;;;;;;;;;;7.20;78.40;;;6.03;61.96;99521.69;5081319;28;19943;-80
2023/03/06 04:57:47;;;;;;;;;;;7.20;78.30;;;6.02;62.47;99525.34;5082234;28;19928;-79
2023/03/06 05:00:17;;;;;;;;;;;7.20;78.50;;;6.05;62.08;99532.88;5073014;28;19924;-81
2023/03/06 05:02:45;;;;;;;;;;;7.20;78.40;;;6.07;61.79;99520.25;5064230;28;20377;-79
2023/03/06 05:05:12;;;;;;;;;;;7.20;78.20;;;6.05;62.22;99519.66;5076590;28;19928;-79
2023/03/06 05:07:39;;;;;;;;;;;7.20;78.40;;;6.04;62.29;99523.31;5067707;28;19932;-80
2023/03/06 05:10:08;;;;;;;;;;;7.20;78.20;;;6.02;62.24;99520.06;5068878;28;19934;-80
2023/03/06 05:12:35;;;;;;;;;;;7.20;78.10;;;6.02;62.18;99519.25;5075252;28;19931;-80
2023/03/06 05:15:04;;;;;;;;;;;7.20;78.00;;;5.87;62.50;99517.59;5073696;28;20442;-80
2023/03/06 05:17:32;;;;;;;;;;;7.10;78.30;;;5.86;62.35;99526.56;5067363;28;19932;-80
2023/03/06 05:19:59;;;;;;;;;;;7.10;78.30;;;5.90;62.55;99524.28;5051618;28;19935;-80
2023/03/06 05:22:26;;;;;;;;;;;7.10;78.40;;;5.96;62.62;99526.19;5078703;28;19928;-80
2023/03/06 05:24:53;;;;;;;;;;;7.10;78.30;;;5.99;62.09;99525.75;5072883;28;19944;-80
2023/03/06 05:27:20;;;;;;;;;;;7.10;78.00;;;6.01;62.16;99529.03;5078525;28;19974;-80
2023/03/06 05:29:47;;;;;;;;;;;7.20;78.00;;;6.03;61.92;99519.03;5093086;28;20292;-80
2023/03/06 05:32:15;;;;;;;;;;;7.20;78.00;;;6.02;62.12;99535.13;5086297;28;19928;-80
2023/03/06 05:34:43;;;;;;;;;;;7.20;77.90;;;6.03;62.23;99528.81;5085674;28;19934;-79
2023/03/06 05:37:09;;;;;;;;;;;7.20;78.00;;;6.05;62.15;99529.41;5078394;28;19933;-80
2023/03/06 05:39:36;;;;;;;;;;;7.20;78.00;;;5.99;62.22;99528.41;5072299;28;19929;-80
2023/03/06 05:42:04;;;;;;;;;;;7.10;78.00;;;5.99;62.27;99535.53;5078874;28;19935;-80
2023/03/06 05:44:32;;;;;;;;;;;7.10;78.40;;;6.01;61.82;99528.22;5077507;28;19935;-80
2023/03/06 05:46:59;;;;;;;;;;;7.10;78.10;;;5.99;62.09;99512.50;5071357;28;20015;-80
2023/03/06 05:49:31;;;;;;;;;;;7.10;78.00;;;5.96;61.66;99515.59;5072068;28;19943;-80
2023/03/06 05:51:58;;;;;;;;;;;7.10;77.90;;;5.96;61.64;99518.22;5077684;28;19947;-80
2023/03/06 05:54:25;;;;;;;;;;;7.10;77.70;;;6.00;61.47;99514.13;5079397;28;19924;-80
2023/03/06 05:56:52;;;;;;;;;;;7.20;77.60;;;5.98;61.83;99512.72;5070572;28;20355;-81
2023/03/06 05:59:19;;;;;;;;;;;7.10;77.40;;;5.94;61.57;99507.03;5071932;28;20424;-80
2023/03/06 06:01:46;;;;;;;;;;;7.10;77.50;;;5.96;61.66;99517.44;5058584;28;19928;-81
2023/03/06 06:04:13;;;;;;;;;;;7.10;77.60;;;5.96;61.62;99504.19;5079171;28;19924;-82
2023/03/06 06:06:41;;;;;;;;;;;7.10;77.60;;;5.96;61.39;99505.00;5076255;28;19947;-82
2023/03/06 06:09:08;;;;;;;;;;;7.10;77.50;;;5.93;61.37;99503.56;5081649;28;19931;-81
2023/03/06 06:11:35;;;;;;;;;;;7.10;77.60;;;5.93;61.48;99510.69;5085398;28;19924;-82
2023/03/06 06:14:02;;;;;;;;;;;7.10;77.60;;;5.91;61.57;99513.56;5066473;28;19935;-81
2023/03/06 06:16:29;;;;;;;;;;;7.00;77.60;;;5.88;61.68;99510.47;5080655;28;19936;-81
2023/03/06 06:18:57;;;;;;;;;;;7.00;77.80;;;5.85;61.82;99519.59;5077515;28;19928;-86
2023/03/06 06:21:24;;;;;;;;;;;7.00;77.90;;;5.80;61.98;99508.81;5085197;28;19928;-88
2023/03/06 06:23:52;;;;;;;;;;;6.90;77.80;;;5.79;61.73;99509.03;5065330;28;19935;-89
2023/03/06 06:26:19;;;;;;;;;;;6.90;78.10;;;5.80;61.98;99514.13;5063848;28;19928;-89
2023/03/06 06:28:46;;;;;;;;;;;6.90;78.10;;;5.74;61.88;99512.28;5081399;28;20445;-87
2023/03/06 06:31:13;;;;;;;;;;;6.90;78.20;;;5.77;61.88;99513.72;5070969;28;19931;-89
2023/03/06 06:33:41;;;;;;;;;;;6.90;78.20;;;5.77;61.96;99508.44;5085595;28;20405;-90
2023/03/06 06:36:15;;;;;;;;;;;6.90;78.30;;;5.83;61.66;99510.25;5082444;28;19935;-88
2023/03/06 06:38:42;;;;;;;;;;;6.90;78.20;;;5.81;61.83;99509.66;5041700;28;19939;-89
2023/03/06 06:41:12;;;;;;;;;;;6.90;78.20;;;5.84;61.64;99509.25;5070349;28;19974;-89
2023/03/06 06:43:39;;;;;;;;;;;6.90;78.20;;;5.85;61.65;99508.22;5074039;28;19924;-87
2023/03/06 06:46:06;;;;;;;;;;;6.90;78.10;;;5.81;61.57;99509.66;5081958;28;19924;-91
2023/03/06 06:48:33;;;;;;;;;;;6.90;78.20;;;5.81;61.94;99504.38;5044415;28;19937;-89
2023/03/06 06:51:00;;;;;;;;;;;6.90;78.40;;;5.84;61.78;99506.59;5037915;28;20023;-89
2023/03/06 06:53:27;;;;;;;;;;;6.90;78.30;;;5.78;61.90;99502.13;5053374;28;19928;-90
2023/03/06 06:55:54;;;;;;;;;;;6.90;78.40;;;5.80;61.99;99492.13;5052795;28;19954;-86
2023/03/06 06:58:22;;;;;;;;;;;6.90;78.40;;;5.84;62.06;99501.31;5067034;28;19925;-87
2023/03/06 07:00:49;;;;;;;;;;;7.00;78.30;;;5.83;61.91;99512.91;5070449;28;19935;-82
2023/03/06 07:03:16;;;;;;;;;;;7.00;78.40;;;5.77;62.16;99508.44;5046772;28;19939;-82
2023/03/06 07:05:43;;;;;;;;;;;7.00;78.40;;;5.75;62.21;99502.53;5074359;28;19928;-79
2023/03/06 07:08:10;;;;;;;;;;;6.90;78.50;;;5.77;62.53;99508.44;5055631;28;19929;-79
2023/03/06 07:10:38;;;;;;;;;;;6.90;78.60;;;5.78;62.41;99513.53;5063439;28;20312;-78
2023/03/06 07:13:05;;;;;;;;;;;6.90;78.60;;;5.81;62.81;99509.66;5061559;28;19932;-81
2023/03/06 07:15:34;;;;;;;;;;;6.90;78.70;;;5.78;62.31;99513.53;5069458;28;19932;-77
2023/03/06 07:18:01;;;;;;;;;;;6.90;78.80;;;5.80;62.73;99508.00;5076016;28;19932;-77
2023/03/06 07:20:28;;;;;;;;;;;6.90;78.80;;;5.76;62.59;99512.06;5070509;28;19929;-77
2023/03/06 07:22:55;;;;;;;;;;;6.90;78.80;;;5.71;62.76;99517.16;5069466;28;20298;-78
2023/03/06 07:25:22;;;;;;;;;;;6.80;79.00;;;5.72;62.95;99516.16;5084827;28;19931;-78
2023/03/06 07:27:51;;;;;;;;;;;6.80;79.10;;;5.63;63.21;99512.91;5075883;28;19930;-78
2023/03/06 07:30:18;;;;;;;;;;;6.80;79.30;;;5.71;63.15;99507.44;5070381;28;19928;-78
2023/03/06 07:32:47;;;;;;;;;;;6.80;79.50;;;5.78;63.21;99510.06;5069600;28;19928;-78
2023/03/06 07:35:15;;;;;;;;;;;6.80;79.40;;;5.83;63.09;99515.56;5077065;28;19935;-78
2023/03/06 07:37:42;;;;;;;;;;;6.90;79.40;;;5.83;63.00;99512.91;5082683;28;19928;-78
2023/03/06 07:40:11;;;;;;;;;;;6.90;79.40;;;5.77;63.27;99506.59;5074374;28;19931;-77
2023/03/06 07:42:38;;;;;;;;;;;6.90;79.50;;;5.72;63.09;99511.69;5068227;28;20289;-78
2023/03/06 07:45:12;;;;;;;;;;;6.80;79.40;;;5.75;63.16;99513.09;5060690;28;19934;-78
2023/03/06 07:47:39;;;;;;;;;;;6.90;79.50;;;5.74;63.26;99512.28;5084322;28;19928;-77
2023/03/06 07:50:08;;;;;;;;;;;6.90;79.60;;;5.75;63.28;99507.81;5082055;28;19931;-78
2023/03/06 07:52:35;;;;;;;;;;;6.90;79.80;;;5.80;63.64;99510.66;5068753;28;19929;-77
2023/03/06 07:55:02;;;;;;;;;;;6.90;79.80;;;5.82;63.50;99508.63;5079125;28;20019;-78
2023/03/06 07:57:29;;;;;;;;;;;6.90;79.80;;;5.79;63.10;99506.38;5071052;28;19935;-78
2023/03/06 07:59:56;;;;;;;;;;;6.90;79.60;;;5.75;63.37;99505.16;5071372;28;20296;-78
2023/03/06 08:02:23;;;;;;;;;;;6.90;79.80;;;5.80;63.41;99498.25;5066363;28;19928;-78
2023/03/06 08:04:52;;;;;;;;;;;6.90;80.00;;;5.82;63.78;99508.63;5074417;28;19929;-78
2023/03/06 08:07:21;;;;;;;;;;;7.10;80.20;;;5.74;63.79;99500.91;5065094;28;19924;-78
2023/03/06 08:09:49;;;;;;;;;;;6.90;80.10;;;5.79;64.08;99507.19;5072515;28;19928;-77
2023/03/06 08:12:16;;;;;;;;;;;6.90;80.30;;;5.82;64.28;99503.34;5080776;28;20402;-77
2023/03/06 08:14:43;;;;;;;;;;;6.90;80.40;;;5.72;64.27;99509.03;5073415;28;19932;-77
2023/03/06 08:17:10;;;;;;;;;;;6.90;80.40;;;5.75;64.27;99505.97;5066507;28;20384;-77
2023/03/06 08:19:37;;;;;;;;;;;6.90;80.70;;;5.79;64.58;99498.47;5046569;28;20022;-78
2023/03/06 08:22:04;;;;;;;;;;;6.90;80.80;;;5.76;64.51;99494.41;5071990;28;19940;-77
2023/03/06 08:24:33;;;;;;;;;;;6.90;80.70;;;5.80;64.67;99494.78;5068370;28;19928;-77
2023/03/06 08:27:00;;;;;;;;;;;6.90;81.00;;;5.82;64.54;99503.34;5075747;28;20015;-78
2023/03/06 08:29:27;;;;;;;;;;;6.90;81.10;;;5.74;64.41;99499.06;5075625;28;19929;-78
2023/03/06 08:31:54;;;;;;;;;;;6.90;80.70;;;5.71;64.81;99504.78;5080413;28;19932;-78
2023/03/06 08:34:23;;;;;;;;;;;6.80;81.10;;;5.60;64.98;99503.53;5068686;28;20010;-78
2023/03/06 08:36:50;;;;;;;;;;;7.00;81.20;;;5.64;65.51;99503.94;5073149;28;19924;-78
2023/03/06 08:39:18;;;;;;;;;;;6.80;81.60;;;5.72;65.35;99508.25;5056719;28;20762;-78
2023/03/06 08:41:46;;;;;;;;;;;6.80;81.50;;;5.71;64.88;99499.50;5076322;28;19928;-78
2023/03/06 08:44:13;;;;;;;;;;;6.80;81.20;;;5.73;65.63;99502.72;5074839;28;19928;-78
2023/03/06 08:46:40;;;;;;;;;;;6.80;81.60;;;5.76;65.39;99501.50;5068773;28;19924;-78
2023/03/06 08:49:07;;;;;;;;;;;6.80;81.60;;;5.71;65.61;99507.44;5069715;28;19924;-77
2023/03/06 08:51:34;;;;;;;;;;;6.80;81.70;;;5.55;65.76;99502.50;5071004;28;19928;-77
2023/03/06 08:54:01;;;;;;;;;;;6.80;81.90;;;5.51;66.21;99506.56;5071271;28;20319;-77
2023/03/06 08:56:30;;;;;;;;;;;6.70;82.20;;;5.55;66.19;99503.31;5077392;28;20468;-78
2023/03/06 08:58:59;;;;;;;;;;;6.80;82.30;;;5.65;66.21;99511.66;5080079;28;19931;-80
2023/03/06 09:01:28;;;;;;;;;;;6.80;82.40;;;5.56;66.50;99509.44;5067643;28;19929;-82
2023/03/06 09:03:56;;;;;;;;;;;6.70;82.50;;;5.59;66.40;99503.75;5067918;28;19934;-82
2023/03/06 09:06:23;;;;;;;;;;;6.80;82.70;;;5.60;66.51;99508.81;5074764;28;20448;-82
2023/03/06 09:08:51;;;;;;;;;;;6.80;82.70;;;5.67;66.59;99514.94;5076345;28;19940;-82
2023/03/06 09:11:22;;;;;;;;;;;6.80;82.70;;;5.71;66.61;99510.06;5079259;28;19948;-82
2023/03/06 09:13:49;;;;;;;;;;;6.80;82.70;;;5.73;66.33;99505.38;5068802;28;19928;-82
2023/03/06 09:16:18;;;;;;;;;;;6.80;82.70;;;5.72;66.67;99505.59;5060731;28;19932;-82
2023/03/06 09:18:45;;;;;;;;;;;6.80;82.70;;;5.76;66.40;99510.28;5061835;28;19928;-81
2023/03/06 09:21:12;;;;;;;;;;;6.80;82.70;;;5.77;66.63;99511.91;5077289;28;20374;-82
2023/03/06 09:23:39;;;;;;;;;;;6.80;83.00;;;5.72;66.94;99509.03;5076114;28;19939;-81
2023/03/06 09:26:07;;;;;;;;;;;6.80;83.30;;;5.77;66.97;99511.91;5073574;28;20374;-85
2023/03/06 09:28:37;;;;;;;;;;;6.80;83.60;;;5.78;67.00;99502.13;5072377;28;19939;-80
2023/03/06 09:31:07;;;;;;;;;;;6.80;83.70;;;5.74;67.83;99507.00;5079716;28;20026;-80
2023/03/06 09:33:36;;;;;;;;;;;6.80;84.10;;;5.73;68.20;99505.38;5056284;28;19939;-79
2023/03/06 09:36:04;;;;;;;;;;;6.80;84.30;;;5.80;68.20;99508.81;5080858;28;20461;-80
2023/03/06 09:38:32;;;;;;;;;;;6.90;84.40;;;5.74;68.52;99507.00;5074885;28;19928;-78
2023/03/06 09:41:04;;;;;;;;;;;6.80;84.50;;;5.74;68.98;99508.84;5077239;28;20035;-80
2023/03/06 09:43:35;;;;;;;;;;;6.90;84.90;;;5.74;69.45;99506.19;5054559;28;19928;-79
2023/03/06 09:46:07;;;;;;;;;;;6.90;85.10;;;5.80;68.86;99505.38;5079862;28;20389;-79
2023/03/06 09:48:41;;;;;;;;;;;6.90;85.10;;;5.76;68.74;99510.28;5080073;28;19936;-78
2023/03/06 09:51:12;;;;;;;;;;;6.90;84.90;;;5.74;68.71;99508.84;5073415;28;19925;-79
2023/03/06 09:53:53;;;;;;;;;;;6.90;84.80;;;5.59;68.04;99511.69;5080926;28;19928;-79
2023/03/06 09:56:23;;;;;;;;;;;6.80;84.30;;;5.57;68.45;99511.88;5074390;28;19939;-78
2023/03/06 09:58:52;;;;;;;;;;;6.80;84.50;;;5.49;68.43;99509.44;5074344;28;19928;-85
2023/03/06 10:01:22;;;;;;;;;;;6.80;84.30;;;5.50;68.80;99511.06;5052298;28;19929;-87
2023/03/06 10:03:54;;;;;;;;;;;6.70;84.50;;;5.51;68.50;99517.16;5082408;28;19943;-78
2023/03/06 10:06:25;;;;;;;;;;;6.70;84.20;;;5.52;68.74;99518.81;5073423;28;19959;-80
2023/03/06 10:08:58;;;;;;;;;;;6.70;84.30;;;5.46;68.25;99515.13;5074077;28;19938;-80
2023/03/06 10:11:27;;;;;;;;;;;6.70;84.10;;;5.47;68.50;99519.41;5078711;28;19939;-79
2023/03/06 10:14:07;;;;;;;;;;;6.70;84.30;;;5.39;68.44;99514.31;5067342;28;20058;-79
2023/03/06 10:16:34;;;;;;;;;;;6.70;84.10;;;5.39;68.38;99514.31;5072395;28;20428;-79
2023/03/06 10:19:07;;;;;;;;;;;6.60;84.00;;;5.45;68.60;99517.97;5052262;28;19928;-79
2023/03/06 10:21:44;;;;;;;;;;;6.70;84.40;;;5.53;68.38;99515.94;5077254;28;20362;-79
2023/03/06 10:24:26;;;;;;;;;;;6.70;84.50;;;5.62;68.10;99525.31;5071733;28;19928;-80
2023/03/06 10:26:59;;;;;;;;;;;6.70;84.30;;;5.68;68.12;99515.75;5053055;28;19972;-79
2023/03/06 10:29:34;;;;;;;;;;;6.80;84.30;;;5.63;67.84;99511.06;5082396;28;19925;-79
2023/03/06 10:32:09;;;;;;;;;;;6.70;84.00;;;5.69;67.37;99514.72;5079412;28;19950;-79
2023/03/06 10:34:39;;;;;;;;;;;6.80;83.90;;;5.75;68.23;99513.91;5077585;28;19928;-79
2023/03/06 10:37:13;;;;;;;;;;;6.90;84.20;;;5.75;68.25;99513.09;5077264;28;19974;-78
2023/03/06 10:39:40;;;;;;;;;;;6.90;84.10;;;5.75;67.96;99513.09;5070872;28;19935;-82
2023/03/06 10:42:08;;;;;;;;;;;6.90;84.10;;;5.67;68.47;99514.94;5049568;28;19932;-82
2023/03/06 10:44:35;;;;;;;;;;;6.80;84.30;;;5.65;67.69;99516.97;5069183;28;20308;-83
2023/03/06 10:47:26;;;;;;;;;;;6.80;83.70;;;5.65;68.08;99513.50;5048117;28;20023;-83
2023/03/06 10:49:59;;;;;;;;;;;6.80;84.10;;;5.65;68.34;99518.78;5052868;28;19935;-83
2023/03/06 10:52:30;;;;;;;;;;;6.80;83.70;;;5.68;67.78;99513.13;5072315;28;19929;-83
2023/03/06 10:55:23;;;;;;;;;;;6.90;83.90;;;5.53;67.23;99510.66;5045891;28;19932;-83
2023/03/06 10:57:50;;;;;;;;;;;6.80;82.80;;;5.51;67.63;99501.28;5082748;28;19935;-83
2023/03/06 11:00:27;;;;;;;;;;;6.80;83.50;;;5.62;67.90;99511.28;5084754;28;19951;-83
2023/03/06 11:03:06;;;;;;;;;;;6.80;83.40;;;5.73;67.44;99509.84;5071537;28;19924;-85
2023/03/06 11:05:34;;;;;;;;;;;6.90;83.40;;;5.80;67.50;99510.66;5074359;28;19932;-83
2023/03/06 11:08:02;;;;;;;;;;;6.90;83.50;;;5.81;67.11;99526.34;5049159;28;19929;-83
2023/03/06 11:10:32;;;;;;;;;;;6.90;83.40;;;5.86;67.30;99518.63;5081375;28;19931;-84
2023/03/06 11:13:01;;;;;;;;;;;7.00;83.40;;;5.91;67.35;99525.94;5078791;28;19924;-85
2023/03/06 11:15:29;;;;;;;;;;;7.00;83.20;;;5.95;66.87;99521.88;5055338;28;20317;-84
2023/03/06 11:18:03;;;;;;;;;;;7.00;83.00;;;5.89;65.78;99525.31;5067896;28;19928;-84
2023/03/06 11:20:34;;;;;;;;;;;7.10;82.00;;;5.90;65.76;99529.59;5064627;28;19932;-84
2023/03/06 11:23:06;;;;;;;;;;;7.00;82.00;;;5.89;64.29;99530.59;5060088;28;19928;-84
2023/03/06 11:25:37;;;;;;;;;;;7.00;80.80;;;5.88;64.46;99519.22;5067579;28;20706;-84
2023/03/06 11:28:07;;;;;;;;;;;7.00;80.40;;;5.86;64.00;99518.63;5072888;28;20363;-84
2023/03/06 11:30:40;;;;;;;;;;;7.00;80.50;;;5.85;63.42;99510.88;5081936;28;20372;-84
2023/03/06 11:33:23;;;;;;;;;;;7.00;79.90;;;5.90;63.26;99513.72;5077589;28;20023;-84
2023/03/06 11:35:56;;;;;;;;;;;7.00;80.00;;;5.92;62.64;99519.66;5063692;28;19935;-84
2023/03/06 11:38:31;;;;;;;;;;;7.10;79.20;;;5.92;62.48;99501.13;5069703;28;20015;-85
2023/03/06 11:40:59;;;;;;;;;;;7.10;79.00;;;6.01;63.15;99501.75;5063751;28;20467;-84